createdAt,value
2019-01-21T00:01:40.513Z,15.73
2019-01-21T00:04:12.652Z,18.63
2019-01-21T00:06:44.386Z,16.83
2019-01-21T00:09:16.088Z,18.83
2019-01-21T00:11:47.838Z,24.33
2019-01-21T00:14:19.517Z,17.00
2019-01-21T00:16:51.840Z,14.23
2019-01-21T00:19:23.540Z,20.33
2019-01-21T00:21:55.211Z,19.70
2019-01-21T00:24:26.910Z,18.93
2019-01-21T00:26:58.585Z,20.93
2019-01-21T00:29:30.285Z,18.97
2019-01-21T00:32:01.945Z,19.33
2019-01-21T00:34:33.706Z,17.70
2019-01-21T00:37:05.548Z,20.30
2019-01-21T00:39:37.337Z,18.53
2019-01-21T00:42:09.083Z,16.50
2019-01-21T00:44:40.858Z,20.27
2019-01-21T00:47:12.703Z,14.73
2019-01-21T00:49:44.431Z,17.20
2019-01-21T00:52:16.106Z,14.90
2019-01-21T00:54:48.191Z,16.27
2019-01-21T00:57:19.917Z,17.60
2019-01-21T00:59:51.749Z,15.47
2019-01-21T01:02:36.062Z,23.10
2019-01-21T01:05:09.355Z,15.37
2019-01-21T01:07:41.045Z,15.07
2019-01-21T01:10:13.459Z,17.93
2019-01-21T01:12:45.165Z,17.77
2019-01-21T01:15:17.087Z,18.33
2019-01-21T01:17:48.844Z,14.07
2019-01-21T01:20:21.547Z,15.00
2019-01-21T01:22:53.266Z,18.13
2019-01-21T01:25:25.039Z,18.97
2019-01-21T01:27:56.717Z,20.90
2019-01-21T01:30:28.404Z,19.03
2019-01-21T01:33:00.088Z,17.80
2019-01-21T01:35:31.850Z,15.93
2019-01-21T01:38:03.632Z,17.20
2019-01-21T01:40:35.337Z,16.83
2019-01-21T01:43:07.010Z,19.20
2019-01-21T01:45:39.172Z,17.60
2019-01-21T01:48:10.908Z,15.03
2019-01-21T01:50:42.680Z,14.63
2019-01-21T01:53:14.732Z,16.47
2019-01-21T01:55:46.563Z,18.33
2019-01-21T01:58:18.314Z,17.27
2019-01-21T02:00:50.143Z,16.20
2019-01-21T02:03:21.818Z,16.37
2019-01-21T02:05:53.615Z,21.07
2019-01-21T02:08:26.871Z,18.60
2019-01-21T02:10:58.654Z,19.27
2019-01-21T02:13:30.420Z,17.80
2019-01-21T02:16:02.180Z,16.20
2019-01-21T02:18:33.948Z,15.83
2019-01-21T02:21:06.016Z,17.77
2019-01-21T02:23:38.501Z,40.60
2019-01-21T02:26:20.455Z,20.50
2019-01-21T02:29:02.272Z,13.73
2019-01-21T02:32:05.742Z,14.73
2019-01-21T02:35:13.287Z,16.63
2019-01-21T02:38:14.085Z,13.77
2019-01-21T02:41:02.806Z,16.67
2019-01-21T02:44:14.603Z,14.37
2019-01-21T02:47:49.136Z,17.57
2019-01-21T02:50:51.152Z,16.17
2019-01-21T02:53:46.690Z,19.03
2019-01-21T02:57:05.783Z,17.67
2019-01-21T03:00:15.764Z,15.60
2019-01-21T03:03:09.778Z,17.40
2019-01-21T03:06:05.358Z,15.80
2019-01-21T03:09:08.592Z,18.70
2019-01-21T03:12:16.940Z,18.77
2019-01-21T03:15:16.522Z,20.30
2019-01-21T03:18:44.477Z,16.97
2019-01-21T03:22:00.372Z,17.67
2019-01-21T03:25:21.586Z,15.90
2019-01-21T03:28:25.578Z,14.73
2019-01-21T03:31:34.188Z,11.40
2019-01-21T03:35:02.411Z,15.57
2019-01-21T03:38:10.256Z,17.87
2019-01-21T03:41:19.683Z,15.90
2019-01-21T03:44:27.805Z,20.23
2019-01-21T03:47:15.309Z,19.43
2019-01-21T03:50:10.675Z,16.90
2019-01-21T03:52:58.942Z,14.97
2019-01-21T03:55:31.824Z,15.73
2019-01-21T03:58:56.885Z,16.30
2019-01-21T04:02:04.190Z,19.07
2019-01-21T04:04:58.473Z,16.80
2019-01-21T04:08:01.429Z,14.67
2019-01-21T04:11:09.493Z,14.90
2019-01-21T04:14:12.294Z,14.77
2019-01-21T04:17:25.242Z,16.43
2019-01-21T04:20:29.307Z,14.33
2019-01-21T04:23:40.285Z,16.70
2019-01-21T04:26:47.242Z,16.53
2019-01-21T04:29:35.083Z,17.73
2019-01-21T04:32:21.586Z,15.37
2019-01-21T04:35:33.298Z,17.40
2019-01-21T04:38:29.759Z,17.10
2019-01-21T04:41:26.638Z,15.17
2019-01-21T04:44:50.618Z,18.03
2019-01-21T04:47:49.412Z,16.87
2019-01-21T04:51:08.596Z,18.20
2019-01-21T04:54:21.654Z,14.63
2019-01-21T04:57:26.246Z,14.63
2019-01-21T05:00:43.246Z,15.20
2019-01-21T05:03:43.695Z,15.27
2019-01-21T05:06:57.042Z,18.97
2019-01-21T05:10:09.032Z,16.67
2019-01-21T05:13:33.035Z,18.60
2019-01-21T05:16:23.486Z,19.17
2019-01-21T05:19:27.247Z,16.20
2019-01-21T05:22:39.820Z,20.90
2019-01-21T05:26:08.363Z,14.90
2019-01-21T05:29:24.359Z,20.20
2019-01-21T05:32:42.913Z,21.83
2019-01-21T05:36:02.749Z,39.40
2019-01-21T05:38:57.434Z,27.13
2019-01-21T05:41:59.778Z,24.80
2019-01-21T05:45:15.621Z,23.30
2019-01-21T05:48:33.709Z,33.67
2019-01-21T05:51:45.719Z,26.03
2019-01-21T05:55:16.677Z,17.87
2019-01-21T05:58:29.355Z,18.43
2019-01-21T06:01:54.419Z,18.27
2019-01-21T06:05:13.124Z,20.40
2019-01-21T06:08:41.152Z,16.97
2019-01-21T06:11:29.603Z,17.67
2019-01-21T06:14:27.803Z,23.53
2019-01-21T06:17:40.888Z,16.30
2019-01-21T06:20:47.553Z,19.93
2019-01-21T06:24:03.991Z,21.13
2019-01-21T06:27:14.607Z,16.67
2019-01-21T06:30:15.310Z,15.40
2019-01-21T06:33:28.126Z,19.47
2019-01-21T06:36:24.948Z,19.53
2019-01-21T06:39:29.492Z,19.17
2019-01-21T06:42:24.511Z,23.47
2019-01-21T06:45:37.436Z,17.73
2019-01-21T06:48:46.345Z,20.93
2019-01-21T06:52:01.188Z,25.63
2019-01-21T06:55:02.869Z,18.87
2019-01-21T06:57:48.558Z,18.83
2019-01-21T07:00:27.232Z,21.53
2019-01-21T07:03:13.495Z,24.43
2019-01-21T07:06:15.406Z,20.87
2019-01-21T07:09:40.476Z,21.20
2019-01-21T07:12:35.691Z,20.93
2019-01-21T07:15:49.228Z,23.00
2019-01-21T07:19:04.038Z,31.43
2019-01-21T07:22:03.683Z,55.53
2019-01-21T07:24:55.810Z,31.47
2019-01-21T07:28:00.115Z,28.90
2019-01-21T07:30:53.675Z,19.87
2019-01-21T07:34:02.305Z,26.57
2019-01-21T07:37:11.193Z,28.83
2019-01-21T07:40:14.167Z,23.37
2019-01-21T07:43:11.582Z,24.00
2019-01-21T07:46:12.812Z,19.97
2019-01-21T07:49:36.997Z,25.83
2019-01-21T07:52:54.037Z,18.87
2019-01-21T07:55:49.859Z,23.20
2019-01-21T07:59:30.155Z,24.43
2019-01-21T08:02:28.673Z,21.63
2019-01-21T08:05:35.476Z,24.20
2019-01-21T08:08:22.330Z,29.70
2019-01-21T08:11:14.493Z,22.87
2019-01-21T08:14:24.871Z,25.33
2019-01-21T08:17:09.988Z,22.70
2019-01-21T08:20:09.719Z,31.73
2019-01-21T08:23:18.564Z,32.97
2019-01-21T08:26:30.528Z,34.47
2019-01-21T08:29:42.210Z,30.27
2019-01-21T08:33:04.220Z,21.53
2019-01-21T08:36:23.364Z,20.83
2019-01-21T08:39:35.350Z,31.13
2019-01-21T08:42:42.765Z,32.80
2019-01-21T08:45:37.571Z,20.07
2019-01-21T08:48:43.094Z,23.00
2019-01-21T08:51:49.400Z,27.67
2019-01-21T08:54:56.453Z,27.23
2019-01-21T08:58:15.512Z,27.37
2019-01-21T09:01:32.045Z,33.63
2019-01-21T09:04:30.614Z,26.53
2019-01-21T09:07:43.367Z,30.63
2019-01-21T09:10:37.433Z,27.47
2019-01-21T09:14:05.654Z,26.43
2019-01-21T09:17:01.737Z,25.37
2019-01-21T09:20:24.007Z,28.10
2019-01-21T09:23:18.374Z,28.10
2019-01-21T09:26:38.186Z,23.83
2019-01-21T09:29:38.899Z,29.87
2019-01-21T09:32:40.057Z,28.77
2019-01-21T09:35:35.641Z,25.63
2019-01-21T09:38:29.434Z,23.50
2019-01-21T09:41:54.735Z,25.47
2019-01-21T09:44:54.994Z,25.30
2019-01-21T09:47:25.068Z,26.50
2019-01-21T09:49:56.816Z,25.57
2019-01-21T09:52:29.540Z,31.67
2019-01-21T09:55:01.757Z,28.03
2019-01-21T09:57:34.456Z,24.80
2019-01-21T10:00:12.317Z,30.13
2019-01-21T10:02:49.002Z,24.13
2019-01-21T10:05:20.731Z,29.30
2019-01-21T10:08:17.838Z,24.67
2019-01-21T10:11:34.560Z,25.27
2019-01-21T10:14:31.710Z,22.90
2019-01-21T10:17:20.263Z,26.90
2019-01-21T10:20:27.340Z,28.83
2019-01-21T10:23:10.483Z,23.67
2019-01-21T10:26:29.935Z,19.93
2019-01-21T10:29:12.351Z,29.30
2019-01-21T10:32:08.262Z,23.23
2019-01-21T10:35:30.362Z,22.70
2019-01-21T10:39:17.070Z,29.27
2019-01-21T10:42:41.925Z,22.73
2019-01-21T10:46:06.823Z,27.67
2019-01-21T10:48:54.965Z,22.60
2019-01-21T10:52:18.758Z,20.63
2019-01-21T10:55:00.819Z,19.53
2019-01-21T10:57:51.804Z,26.13
2019-01-21T11:00:54.709Z,21.63
2019-01-21T11:04:10.246Z,25.73
2019-01-21T11:07:26.941Z,25.53
2019-01-21T11:10:27.611Z,26.70
2019-01-21T11:13:35.031Z,23.87
2019-01-21T11:16:50.778Z,27.00
2019-01-21T11:20:08.339Z,21.93
2019-01-21T11:22:58.473Z,25.97
2019-01-21T11:26:06.885Z,25.97
2019-01-21T11:29:12.243Z,21.43
2019-01-21T11:32:21.771Z,22.93
2019-01-21T11:35:51.642Z,22.77
2019-01-21T11:38:39.652Z,22.70
2019-01-21T11:41:40.415Z,22.03
2019-01-21T11:45:03.387Z,21.53
2019-01-21T11:48:02.185Z,30.27
2019-01-21T11:51:03.000Z,18.83
2019-01-21T11:54:07.082Z,29.93
2019-01-21T11:57:00.968Z,22.10
2019-01-21T12:00:02.861Z,26.93
2019-01-21T12:02:48.072Z,22.87
2019-01-21T12:05:57.985Z,25.67
2019-01-21T12:09:07.178Z,21.63
2019-01-21T12:12:20.564Z,19.57
2019-01-21T12:15:39.824Z,25.93
2019-01-21T12:18:32.997Z,23.43
2019-01-21T12:21:42.518Z,22.57
2019-01-21T12:24:41.718Z,18.00
2019-01-21T12:27:45.898Z,18.73
2019-01-21T12:30:30.560Z,22.60
2019-01-21T12:33:38.949Z,20.07
2019-01-21T12:36:58.941Z,19.17
2019-01-21T12:40:00.933Z,20.13
2019-01-21T12:43:07.917Z,17.47
2019-01-21T12:46:32.039Z,17.33
2019-01-21T12:49:54.267Z,20.17
2019-01-21T12:52:57.841Z,18.07
2019-01-21T12:56:10.281Z,17.80
2019-01-21T12:58:53.087Z,14.13
2019-01-21T13:02:00.794Z,15.63
2019-01-21T13:05:10.339Z,17.17
2019-01-21T13:08:10.027Z,19.80
2019-01-21T13:11:16.392Z,26.20
2019-01-21T13:14:41.683Z,20.93
2019-01-21T13:18:09.760Z,14.60
2019-01-21T13:21:06.420Z,17.50
2019-01-21T13:24:03.265Z,16.80
2019-01-21T13:27:08.351Z,16.27
2019-01-21T13:29:55.027Z,18.37
2019-01-21T13:33:03.335Z,19.37
2019-01-21T13:36:10.730Z,17.50
2019-01-21T13:39:37.702Z,17.53
2019-01-21T13:42:25.166Z,19.23
2019-01-21T13:45:46.482Z,26.50
2019-01-21T13:49:07.654Z,17.93
2019-01-21T13:52:22.716Z,19.47
2019-01-21T13:55:20.054Z,24.10
2019-01-21T13:58:20.060Z,20.50
2019-01-21T14:01:29.818Z,20.97
2019-01-21T14:04:48.666Z,27.10
2019-01-21T14:07:51.844Z,21.87
2019-01-21T14:11:04.546Z,24.13
2019-01-21T14:14:12.238Z,23.37
2019-01-21T14:16:59.378Z,21.37
2019-01-21T14:20:06.785Z,20.73
2019-01-21T14:23:09.897Z,20.47
2019-01-21T14:26:25.437Z,20.47
2019-01-21T14:29:25.625Z,20.93
2019-01-21T14:32:46.355Z,24.07
2019-01-21T14:36:01.337Z,22.80
2019-01-21T14:39:18.454Z,24.67
2019-01-21T14:42:14.619Z,23.97
2019-01-21T14:45:41.031Z,21.13
2019-01-21T14:49:06.057Z,19.93
2019-01-21T14:52:26.377Z,19.07
2019-01-21T14:55:31.924Z,18.57
2019-01-21T14:58:43.889Z,17.43
2019-01-21T15:02:03.077Z,18.97
2019-01-21T15:05:02.229Z,19.10
2019-01-21T15:07:45.420Z,21.47
2019-01-21T15:11:03.608Z,21.83
2019-01-21T15:14:18.634Z,17.13
2019-01-21T15:17:15.925Z,18.67
2019-01-21T15:20:16.754Z,20.00
2019-01-21T15:23:10.506Z,20.07
2019-01-21T15:26:24.817Z,27.20
2019-01-21T15:29:32.112Z,27.70
2019-01-21T15:32:45.486Z,32.80
2019-01-21T15:35:43.090Z,23.57
2019-01-21T15:38:56.356Z,26.27
2019-01-21T15:41:51.610Z,26.87
2019-01-21T15:44:55.096Z,20.73
2019-01-21T15:47:49.404Z,24.13
2019-01-21T15:50:33.486Z,27.77
2019-01-21T15:54:01.662Z,25.07
2019-01-21T15:56:54.090Z,26.00
2019-01-21T16:00:01.619Z,27.07
2019-01-21T16:03:10.923Z,21.10
2019-01-21T16:05:57.647Z,27.67
2019-01-21T16:08:52.533Z,27.07
2019-01-21T16:11:59.523Z,24.30
2019-01-21T16:14:53.929Z,25.00
2019-01-21T16:18:15.040Z,25.23
2019-01-21T16:21:26.499Z,26.83
2019-01-21T16:24:48.744Z,26.90
2019-01-21T16:27:49.801Z,33.90
2019-01-21T16:30:46.569Z,31.27
2019-01-21T16:33:50.097Z,30.60
2019-01-21T16:36:47.713Z,28.67
2019-01-21T16:40:06.229Z,32.07
2019-01-21T16:42:37.998Z,31.27
2019-01-21T16:45:09.783Z,32.87
2019-01-21T16:47:41.481Z,30.80
2019-01-21T16:50:13.355Z,36.40
2019-01-21T16:52:45.212Z,28.77
2019-01-21T16:55:16.941Z,27.90
2019-01-21T16:57:48.701Z,33.03
2019-01-21T17:00:20.405Z,29.73
2019-01-21T17:02:52.285Z,34.13
2019-01-21T17:05:24.072Z,30.73
2019-01-21T17:07:55.781Z,32.10
2019-01-21T17:10:27.557Z,36.20
2019-01-21T17:12:59.386Z,42.50
2019-01-21T17:15:31.193Z,49.73
2019-01-21T17:18:18.867Z,42.63
2019-01-21T17:20:50.571Z,36.67
2019-01-21T17:23:22.407Z,38.87
2019-01-21T17:25:54.102Z,38.70
2019-01-21T17:28:25.810Z,35.50
2019-01-21T17:30:57.508Z,45.23
2019-01-21T17:33:29.218Z,37.97
2019-01-21T17:36:00.992Z,40.17
2019-01-21T17:38:32.734Z,45.60
2019-01-21T17:41:04.825Z,43.77
2019-01-21T17:43:36.605Z,38.50
2019-01-21T17:46:08.654Z,43.60
2019-01-21T17:48:40.395Z,37.33
2019-01-21T17:51:12.180Z,40.13
2019-01-21T17:53:43.976Z,48.73
2019-01-21T17:56:15.806Z,38.03
2019-01-21T17:58:47.632Z,34.73
2019-01-21T18:01:19.397Z,40.57
2019-01-21T18:03:51.152Z,41.30
2019-01-21T18:06:22.865Z,34.47
2019-01-21T18:08:54.642Z,41.97
2019-01-21T18:11:26.360Z,44.90
2019-01-21T18:13:58.051Z,40.73
2019-01-21T18:16:30.068Z,38.40
2019-01-21T18:19:01.767Z,42.23
2019-01-21T18:21:33.578Z,40.40
2019-01-21T18:24:05.334Z,40.83
2019-01-21T18:26:37.232Z,42.80
2019-01-21T18:29:08.941Z,37.67
2019-01-21T18:31:40.617Z,33.77
2019-01-21T18:34:12.447Z,40.27
2019-01-21T18:36:44.303Z,36.50
2019-01-21T18:39:16.140Z,35.23
2019-01-21T18:41:47.971Z,34.30
2019-01-21T18:44:19.715Z,31.07
2019-01-21T18:46:51.473Z,40.13
2019-01-21T18:49:23.363Z,45.10
2019-01-21T18:52:14.243Z,36.13
2019-01-21T18:54:46.023Z,38.23
2019-01-21T18:57:17.710Z,41.03
2019-01-21T18:59:49.447Z,35.13
2019-01-21T19:02:21.284Z,41.50
2019-01-21T19:04:52.962Z,44.80
2019-01-21T19:07:27.672Z,46.53
2019-01-21T19:09:59.366Z,45.70
2019-01-21T19:12:31.195Z,42.60
2019-01-21T19:15:03.295Z,38.93
2019-01-21T19:17:35.092Z,45.20
2019-01-21T19:20:08.251Z,44.00
2019-01-21T19:22:40.103Z,37.13
2019-01-21T19:25:11.991Z,43.30
2019-01-21T19:27:43.723Z,40.23
2019-01-21T19:30:20.987Z,33.87
2019-01-21T19:32:53.112Z,40.53
2019-01-21T19:35:30.452Z,40.27
2019-01-21T19:38:02.135Z,32.20
2019-01-21T19:40:33.872Z,44.70
2019-01-21T19:43:06.370Z,45.50
2019-01-21T19:45:38.062Z,49.90
2019-01-21T19:48:09.718Z,56.60
2019-01-21T19:50:41.412Z,50.87
2019-01-21T19:53:13.213Z,45.13
2019-01-21T19:55:45.322Z,41.07
2019-01-21T19:58:16.996Z,44.77
2019-01-21T20:00:48.689Z,45.40
2019-01-21T20:03:20.473Z,41.77
2019-01-21T20:05:52.333Z,43.80
2019-01-21T20:08:24.041Z,39.50
2019-01-21T20:10:55.772Z,44.17
2019-01-21T20:13:27.520Z,43.97
2019-01-21T20:15:59.347Z,34.73
2019-01-21T20:18:31.117Z,52.23
2019-01-21T20:21:02.795Z,38.17
2019-01-21T20:23:34.491Z,47.57
2019-01-21T20:26:06.207Z,41.93
2019-01-21T20:28:37.889Z,38.93
2019-01-21T20:31:09.590Z,33.63
2019-01-21T20:33:41.287Z,39.97
2019-01-21T20:36:13.058Z,38.50
2019-01-21T20:38:44.721Z,41.37
2019-01-21T20:41:16.515Z,35.83
2019-01-21T20:43:48.286Z,36.90
2019-01-21T20:46:20.027Z,38.13
2019-01-21T20:48:51.763Z,35.13
2019-01-21T20:51:24.277Z,33.53
2019-01-21T20:53:56.028Z,51.83
2019-01-21T20:56:27.766Z,31.70
2019-01-21T20:58:59.430Z,34.83
2019-01-21T21:01:31.224Z,36.80
2019-01-21T21:04:03.175Z,44.00
2019-01-21T21:06:35.540Z,38.03
2019-01-21T21:09:09.928Z,44.13
2019-01-21T21:11:41.978Z,40.20
2019-01-21T21:14:13.954Z,36.73
2019-01-21T21:16:45.976Z,38.57
2019-01-21T21:19:17.925Z,38.23
2019-01-21T21:21:49.847Z,35.67
2019-01-21T21:24:21.804Z,34.17
2019-01-21T21:26:53.838Z,35.70
2019-01-21T21:29:25.804Z,37.67
2019-01-21T21:31:57.795Z,36.43
2019-01-21T21:34:30.114Z,44.10
2019-01-21T21:37:03.068Z,37.67
2019-01-21T21:39:35.010Z,33.60
2019-01-21T21:42:06.982Z,37.57
2019-01-21T21:44:38.949Z,32.43
2019-01-21T21:47:11.492Z,31.63
2019-01-21T21:49:43.482Z,36.77
2019-01-21T21:52:15.440Z,33.70
2019-01-21T21:54:47.649Z,37.20
2019-01-21T21:57:19.977Z,34.80
2019-01-21T21:59:51.859Z,40.40
2019-01-21T22:02:23.845Z,33.47
2019-01-21T22:04:56.003Z,37.13
2019-01-21T22:07:27.958Z,35.40
2019-01-21T22:09:59.847Z,33.33
2019-01-21T22:12:31.746Z,43.97
2019-01-21T22:15:03.826Z,37.77
2019-01-21T22:17:35.773Z,33.27
2019-01-21T22:20:10.335Z,37.23
2019-01-21T22:22:42.257Z,39.07
2019-01-21T22:25:14.194Z,32.67
2019-01-21T22:27:45.953Z,37.70
2019-01-21T22:30:20.501Z,30.37
2019-01-21T22:32:52.264Z,32.93
2019-01-21T22:35:24.020Z,35.07
2019-01-21T22:37:55.741Z,31.50
2019-01-21T22:40:27.496Z,33.83
2019-01-21T22:42:59.208Z,33.30
2019-01-21T22:45:30.990Z,33.60
2019-01-21T22:48:02.970Z,29.80
2019-01-21T22:50:34.696Z,35.13
2019-01-21T22:53:06.464Z,33.60
2019-01-21T22:55:38.236Z,33.20
2019-01-21T22:58:10.300Z,34.73
2019-01-21T23:01:03.192Z,32.27
2019-01-21T23:03:35.057Z,37.70
2019-01-21T23:06:08.002Z,35.30
2019-01-21T23:08:39.705Z,41.53
2019-01-21T23:11:11.848Z,35.13
2019-01-21T23:13:43.657Z,36.00
2019-01-21T23:16:15.647Z,36.10
2019-01-21T23:18:47.509Z,34.07
2019-01-21T23:21:19.284Z,35.60
2019-01-21T23:23:51.058Z,36.90
2019-01-21T23:26:22.746Z,37.83
2019-01-21T23:28:54.601Z,35.73
2019-01-21T23:31:26.331Z,31.80
2019-01-21T23:33:58.097Z,34.90
2019-01-21T23:36:29.923Z,40.70
2019-01-21T23:39:02.084Z,34.77
2019-01-21T23:41:33.863Z,38.57
2019-01-21T23:44:05.680Z,40.63
2019-01-21T23:46:37.448Z,37.00
2019-01-21T23:49:09.309Z,34.67
2019-01-21T23:51:41.031Z,37.03
2019-01-21T23:54:12.704Z,35.80
2019-01-21T23:56:44.447Z,38.10
2019-01-21T23:59:16.219Z,34.67
